createdAt,value
2023-05-07T00:01:42.456Z,14.89
2023-05-07T00:04:19.916Z,15.12
2023-05-07T00:13:31.055Z,15.06
2023-05-07T00:16:56.088Z,14.19
2023-05-07T00:29:36.797Z,14.17
2023-05-07T00:32:36.054Z,13.72
2023-05-07T00:35:39.903Z,14.15
2023-05-07T00:38:35.121Z,14.08
2023-05-07T00:41:09.270Z,13.95
2023-05-07T00:43:50.861Z,13.76
2023-05-07T00:46:41.817Z,13.55
2023-05-07T00:49:24.640Z,13.82
2023-05-07T00:51:56.427Z,13.35
2023-05-07T00:54:38.184Z,13.13
2023-05-07T00:59:35.279Z,13.53
2023-05-07T01:02:06.303Z,13.80
2023-05-07T01:04:56.107Z,13.73
2023-05-07T01:07:45.624Z,13.62
2023-05-07T01:10:24.804Z,13.58
2023-05-07T01:13:11.742Z,13.60
2023-05-07T01:15:53.288Z,13.56
2023-05-07T01:18:36.974Z,13.52
2023-05-07T01:21:22.372Z,13.57
2023-05-07T01:28:11.027Z,13.77
2023-05-07T01:34:29.948Z,13.78
2023-05-07T01:37:16.934Z,13.86
2023-05-07T01:39:48.552Z,13.78
2023-05-07T01:43:17.685Z,13.72
2023-05-07T01:46:14.944Z,13.79
2023-05-07T01:52:55.399Z,13.59
2023-05-07T02:02:17.902Z,13.54
2023-05-07T02:05:09.726Z,13.48
2023-05-07T02:07:44.764Z,13.17
2023-05-07T02:10:35.730Z,13.30
2023-05-07T02:13:41.096Z,13.20
2023-05-07T02:16:14.334Z,13.18
2023-05-07T02:18:54.146Z,13.20
2023-05-07T02:21:28.400Z,13.35
2023-05-07T02:24:08.741Z,13.30
2023-05-07T02:26:44.469Z,13.45
2023-05-07T02:30:36.242Z,13.12
2023-05-07T02:33:23.735Z,13.22
2023-05-07T02:35:56.669Z,13.31
2023-05-07T02:38:47.892Z,13.30
2023-05-07T02:42:11.656Z,13.25
2023-05-07T02:47:18.779Z,13.07
2023-05-07T02:57:36.837Z,13.01
2023-05-07T03:00:19.658Z,12.96
2023-05-07T03:03:31.187Z,12.93
2023-05-07T03:06:06.729Z,12.74
2023-05-07T03:08:49.926Z,12.56
2023-05-07T03:11:39.598Z,12.65
2023-05-07T03:14:12.914Z,12.72
2023-05-07T03:16:54.184Z,12.73
2023-05-07T03:19:31.051Z,12.65
2023-05-07T03:22:02.585Z,12.72
2023-05-07T03:24:58.835Z,12.67
2023-05-07T03:27:52.111Z,12.53
2023-05-07T03:30:28.327Z,12.53
2023-05-07T03:33:08.730Z,12.60
2023-05-07T03:36:06.023Z,12.57
2023-05-07T03:38:57.808Z,12.45
2023-05-07T03:41:37.448Z,12.31
2023-05-07T03:44:09.272Z,12.40
2023-05-07T03:46:54.668Z,12.30
2023-05-07T03:50:31.544Z,12.42
2023-05-07T03:58:57.516Z,12.10
2023-05-07T04:01:39.644Z,11.93
2023-05-07T04:07:36.179Z,11.87
2023-05-07T04:10:20.355Z,12.07
2023-05-07T04:12:55.157Z,12.07
2023-05-07T04:15:26.554Z,11.98
2023-05-07T04:17:56.122Z,11.89
2023-05-07T04:20:29.535Z,12.11
2023-05-07T04:23:18.502Z,12.20
2023-05-07T04:26:01.768Z,12.19
2023-05-07T04:29:01.089Z,12.18
2023-05-07T04:31:44.169Z,12.15
2023-05-07T04:34:59.621Z,12.01
2023-05-07T04:39:24.374Z,12.02
2023-05-07T04:42:18.129Z,11.89
2023-05-07T04:45:04.683Z,11.93
2023-05-07T04:51:19.390Z,11.82
2023-05-07T04:54:46.817Z,11.50
2023-05-07T04:58:46.000Z,11.47
2023-05-07T05:01:27.641Z,11.84
2023-05-07T05:04:04.990Z,11.71
2023-05-07T05:06:35.957Z,11.60
2023-05-07T05:09:35.694Z,11.30
2023-05-07T05:12:20.202Z,11.44
2023-05-07T05:14:56.019Z,11.71
2023-05-07T05:17:37.841Z,11.78
2023-05-07T05:20:14.833Z,11.76
2023-05-07T05:22:58.849Z,11.68
2023-05-07T05:25:31.468Z,11.67
2023-05-07T05:28:10.875Z,11.55
2023-05-07T05:31:09.024Z,11.41
2023-05-07T05:33:49.808Z,11.47
2023-05-07T05:36:24.361Z,11.47
2023-05-07T05:39:04.418Z,11.41
2023-05-07T05:41:53.366Z,11.33
2023-05-07T05:45:28.403Z,11.15
2023-05-07T05:52:53.893Z,11.22
2023-05-07T05:59:52.892Z,11.14
2023-05-07T06:03:02.252Z,11.11
2023-05-07T06:05:52.743Z,11.09
2023-05-07T06:11:55.300Z,11.02
2023-05-07T06:19:56.183Z,10.93
2023-05-07T06:24:06.619Z,10.82
2023-05-07T06:35:12.503Z,10.61
2023-05-07T06:49:58.887Z,10.55
2023-05-07T06:53:08.652Z,10.54
2023-05-07T06:55:52.904Z,10.45
2023-05-07T06:58:35.257Z,10.44
2023-05-07T07:01:08.267Z,10.45
2023-05-07T07:06:47.595Z,10.37
2023-05-07T07:10:11.623Z,10.31
2023-05-07T07:13:02.030Z,10.26
2023-05-07T07:15:51.392Z,10.25
2023-05-07T07:18:45.042Z,10.26
2023-05-07T07:21:36.801Z,10.24
2023-05-07T07:24:58.668Z,10.21
2023-05-07T07:31:04.639Z,10.20
2023-05-07T07:34:10.411Z,10.20
2023-05-07T07:37:31.345Z,10.20
2023-05-07T07:40:15.341Z,10.18
2023-05-07T07:43:29.947Z,9.98
2023-05-07T07:58:27.770Z,10.21
2023-05-07T08:01:22.361Z,10.18
2023-05-07T08:04:41.303Z,10.01
2023-05-07T08:14:52.183Z,10.13
2023-05-07T08:25:06.505Z,10.07
2023-05-07T08:31:27.958Z,10.16
2023-05-07T08:34:23.356Z,10.21
2023-05-07T08:37:42.371Z,10.24
2023-05-07T08:40:18.697Z,10.24
2023-05-07T08:46:41.287Z,10.38
2023-05-07T08:50:05.023Z,10.40
2023-05-07T09:04:10.146Z,10.44
2023-05-07T09:07:14.700Z,10.38
2023-05-07T09:10:18.411Z,10.41
2023-05-07T09:14:00.313Z,10.43
2023-05-07T09:17:04.883Z,10.49
2023-05-07T09:19:53.294Z,10.38
2023-05-07T09:22:39.498Z,10.43
2023-05-07T09:25:55.228Z,10.39
2023-05-07T09:32:21.122Z,10.55
2023-05-07T09:39:39.710Z,10.56
2023-05-07T10:04:17.165Z,10.33
2023-05-07T10:07:09.919Z,10.37
2023-05-07T10:10:42.074Z,10.37
2023-05-07T10:13:55.819Z,10.29
2023-05-07T10:17:06.673Z,10.41
2023-05-07T10:20:24.417Z,10.30
2023-05-07T10:27:32.538Z,10.54
2023-05-07T10:31:06.624Z,10.39
2023-05-07T10:33:54.747Z,10.26
2023-05-07T10:36:31.691Z,10.41
2023-05-07T10:39:56.614Z,10.46
2023-05-07T10:42:36.641Z,10.39
2023-05-07T10:48:30.053Z,10.35
2023-05-07T10:51:35.875Z,10.36
2023-05-07T10:54:47.259Z,10.39
2023-05-07T11:05:44.595Z,10.25
2023-05-07T11:10:15.074Z,10.45
2023-05-07T12:06:42.479Z,10.32
2023-05-07T12:10:14.837Z,10.38
2023-05-07T12:19:59.314Z,10.31
2023-05-07T12:22:50.984Z,10.32
2023-05-07T12:25:50.927Z,10.33
2023-05-07T12:28:41.666Z,10.18
2023-05-07T12:31:16.722Z,10.35
2023-05-07T12:34:23.503Z,10.43
2023-05-07T12:37:32.389Z,10.18
2023-05-07T12:40:46.790Z,10.20
2023-05-07T12:43:36.122Z,10.54
2023-05-07T12:46:34.780Z,10.39
2023-05-07T12:49:34.858Z,10.15
2023-05-07T12:52:57.202Z,10.24
2023-05-07T12:55:27.737Z,10.28
2023-05-07T13:02:33.097Z,10.37
2023-05-07T13:10:36.578Z,10.31
2023-05-07T13:17:02.711Z,10.46
2023-05-07T13:32:43.656Z,10.35
2023-05-07T13:59:30.634Z,10.17
2023-05-07T14:16:18.168Z,10.31
2023-05-07T14:23:26.913Z,10.26
2023-05-07T14:26:12.165Z,10.29
2023-05-07T14:29:50.661Z,10.35
2023-05-07T14:32:56.175Z,10.35
2023-05-07T14:41:56.100Z,10.50
2023-05-07T14:44:31.059Z,10.36
2023-05-07T14:47:25.093Z,10.35
2023-05-07T14:50:35.413Z,10.73
2023-05-07T15:00:58.654Z,10.64
2023-05-07T15:04:22.919Z,10.54
2023-05-07T15:07:32.137Z,10.46
2023-05-07T15:19:01.903Z,10.85
2023-05-07T15:21:48.338Z,10.78
2023-05-07T15:25:37.550Z,10.97
2023-05-07T15:32:01.602Z,11.06
2023-05-07T15:37:56.682Z,11.03
2023-05-07T15:41:00.648Z,11.09
2023-05-07T15:44:36.684Z,10.97
2023-05-07T15:48:10.513Z,10.96
2023-05-07T15:51:06.265Z,11.10
2023-05-07T15:54:32.550Z,11.08
2023-05-07T15:58:45.073Z,11.13
2023-05-07T16:01:42.706Z,11.11
2023-05-07T16:04:43.499Z,10.99
2023-05-07T16:09:00.583Z,11.01
2023-05-07T16:12:33.496Z,10.96
2023-05-07T16:16:57.099Z,10.87
2023-05-07T16:25:31.168Z,11.17
2023-05-07T16:32:46.357Z,11.51
2023-05-07T16:39:51.816Z,11.72
2023-05-07T16:43:44.576Z,11.83
2023-05-07T16:50:32.928Z,11.86
2023-05-07T17:14:11.593Z,12.83
2023-05-07T17:43:02.069Z,12.76
2023-05-07T17:45:43.199Z,12.79
2023-05-07T17:49:15.894Z,12.91
2023-05-07T18:31:27.462Z,12.91
2023-05-07T18:34:49.307Z,13.45
2023-05-07T19:29:01.674Z,13.92
2023-05-07T19:31:41.939Z,13.83
2023-05-07T19:34:17.350Z,13.66
2023-05-07T19:36:52.792Z,14.18
2023-05-07T19:39:27.377Z,14.42
2023-05-07T19:42:00.253Z,14.27
2023-05-07T19:44:30.357Z,13.84
2023-05-07T19:47:01.660Z,13.95
2023-05-07T19:49:39.277Z,13.95
2023-05-07T19:52:18.342Z,14.15
2023-05-07T19:54:56.570Z,14.25
2023-05-07T19:57:27.008Z,14.27
2023-05-07T20:00:04.427Z,13.91
2023-05-07T20:02:42.136Z,13.68
2023-05-07T20:05:14.952Z,13.55
2023-05-07T20:07:50.098Z,14.10
2023-05-07T20:11:36.029Z,14.24
2023-05-07T20:14:06.923Z,13.93
2023-05-07T20:16:36.683Z,14.08
2023-05-07T20:19:20.747Z,14.30
2023-05-07T20:21:58.580Z,14.29
2023-05-07T20:24:29.251Z,14.26
2023-05-07T20:26:58.882Z,14.37
2023-05-07T20:29:28.681Z,14.87
2023-05-07T20:32:32.379Z,14.99
2023-05-07T20:39:58.272Z,15.51
2023-05-07T20:46:20.169Z,16.17
2023-05-07T20:49:50.983Z,15.79
2023-05-07T20:58:13.196Z,15.75
2023-05-07T21:01:42.854Z,15.97
2023-05-07T21:05:43.576Z,16.15
2023-05-07T21:08:21.094Z,16.54
2023-05-07T21:11:04.634Z,16.66
2023-05-07T21:22:24.835Z,16.72
2023-05-07T21:31:37.433Z,17.12
2023-05-07T21:47:43.663Z,17.66
2023-05-07T21:51:44.447Z,18.09
2023-05-07T21:55:47.388Z,18.19
2023-05-07T21:59:01.533Z,18.43
2023-05-07T22:01:49.987Z,17.51
2023-05-07T22:08:33.814Z,17.16
2023-05-07T22:12:35.221Z,16.70
2023-05-07T22:15:56.706Z,16.75
2023-05-07T23:17:02.915Z,16.05
2023-05-07T23:20:30.281Z,16.20
2023-05-07T23:35:53.003Z,16.57
2023-05-07T23:46:03.939Z,16.52
2023-05-07T23:50:34.854Z,16.75
2023-05-07T23:53:44.193Z,16.89
2023-05-07T23:56:44.191Z,16.67
